createdAt,value
2018-07-02T00:00:59.388Z,18.29
2018-07-02T00:01:59.392Z,18.25
2018-07-02T00:02:59.404Z,18.23
2018-07-02T00:03:59.392Z,18.27
2018-07-02T00:04:59.397Z,18.21
2018-07-02T00:05:59.529Z,18.18
2018-07-02T00:06:59.404Z,18.10
2018-07-02T00:07:59.534Z,18.12
2018-07-02T00:08:59.398Z,18.11
2018-07-02T00:09:59.426Z,18.02
2018-07-02T00:10:59.564Z,18.08
2018-07-02T00:11:59.426Z,18.00
2018-07-02T00:12:59.437Z,18.10
2018-07-02T00:13:59.427Z,18.00
2018-07-02T00:14:59.433Z,18.03
2018-07-02T00:15:59.457Z,17.95
2018-07-02T00:16:59.439Z,17.95
2018-07-02T00:17:59.441Z,17.93
2018-07-02T00:18:59.438Z,17.92
2018-07-02T00:19:59.464Z,17.89
2018-07-02T00:20:59.449Z,17.92
2018-07-02T00:21:59.484Z,17.93
2018-07-02T00:22:59.461Z,17.86
2018-07-02T00:23:59.451Z,17.96
2018-07-02T00:24:59.455Z,17.87
2018-07-02T00:25:59.465Z,17.96
2018-07-02T00:26:59.444Z,17.86
2018-07-02T00:27:59.456Z,17.92
2018-07-02T00:28:59.448Z,17.95
2018-07-02T00:29:59.482Z,17.92
2018-07-02T00:30:59.488Z,17.97
2018-07-02T00:31:59.500Z,17.89
2018-07-02T00:32:59.482Z,17.81
2018-07-02T00:34:00.434Z,17.79
2018-07-02T00:34:59.473Z,17.75
2018-07-02T00:35:59.491Z,17.70
2018-07-02T00:36:59.470Z,17.78
2018-07-02T00:37:59.465Z,17.78
2018-07-02T00:38:59.521Z,17.72
2018-07-02T00:39:59.513Z,17.74
2018-07-02T00:40:59.486Z,17.75
2018-07-02T00:41:59.532Z,17.70
2018-07-02T00:42:59.535Z,17.70
2018-07-02T00:44:00.440Z,17.63
2018-07-02T00:44:59.511Z,17.72
2018-07-02T00:45:59.583Z,17.68
2018-07-02T00:46:59.498Z,17.66
2018-07-02T00:47:59.538Z,17.62
2018-07-02T00:48:59.504Z,17.62
2018-07-02T00:49:59.543Z,17.59
2018-07-02T00:50:59.515Z,17.56
2018-07-02T00:51:59.551Z,17.64
2018-07-02T00:52:59.521Z,17.68
2018-07-02T00:53:59.547Z,17.63
2018-07-02T00:54:59.548Z,17.68
2018-07-02T00:55:59.600Z,17.71
2018-07-02T00:56:59.558Z,17.63
2018-07-02T00:57:59.533Z,17.64
2018-07-02T00:58:59.554Z,17.55
2018-07-02T00:59:59.547Z,17.54
2018-07-02T01:00:59.534Z,17.52
2018-07-02T01:01:59.615Z,17.55
2018-07-02T01:02:59.585Z,17.52
2018-07-02T01:03:59.538Z,17.58
2018-07-02T01:04:59.550Z,17.55
2018-07-02T01:05:59.571Z,17.55
2018-07-02T01:06:59.602Z,17.49
2018-07-02T01:07:59.614Z,17.54
2018-07-02T01:08:59.567Z,17.62
2018-07-02T01:09:59.604Z,17.64
2018-07-02T01:10:59.589Z,17.55
2018-07-02T01:12:00.450Z,17.46
2018-07-02T01:12:59.568Z,17.55
2018-07-02T01:13:59.608Z,17.52
2018-07-02T01:14:59.618Z,17.48
2018-07-02T01:15:59.589Z,17.37
2018-07-02T01:16:59.622Z,17.44
2018-07-02T01:17:59.601Z,17.49
2018-07-02T01:18:59.609Z,17.46
2018-07-02T01:19:59.624Z,17.38
2018-07-02T01:20:59.603Z,17.46
2018-07-02T01:21:59.599Z,17.48
2018-07-02T01:22:59.598Z,17.40
2018-07-02T01:23:59.610Z,17.49
2018-07-02T01:25:00.455Z,17.38
2018-07-02T01:25:59.607Z,17.44
2018-07-02T01:26:59.621Z,17.44
2018-07-02T01:27:59.609Z,17.41
2018-07-02T01:28:59.616Z,17.41
2018-07-02T01:29:59.630Z,17.38
2018-07-02T01:30:59.629Z,17.38
2018-07-02T01:31:59.685Z,17.34
2018-07-02T01:32:59.633Z,17.28
2018-07-02T01:33:59.648Z,17.37
2018-07-02T01:34:59.650Z,17.23
2018-07-02T01:35:59.670Z,17.26
2018-07-02T01:36:59.647Z,17.22
2018-07-02T01:37:59.782Z,17.31
2018-07-02T01:38:59.685Z,17.15
2018-07-02T01:39:59.654Z,17.25
2018-07-02T01:40:59.659Z,17.25
2018-07-02T01:41:59.682Z,17.31
2018-07-02T01:42:59.665Z,17.25
2018-07-02T01:43:59.698Z,17.18
2018-07-02T01:44:59.653Z,17.11
2018-07-02T01:45:59.674Z,17.14
2018-07-02T01:46:59.698Z,17.14
2018-07-02T01:47:59.670Z,17.18
2018-07-02T01:48:59.668Z,17.12
2018-07-02T01:49:59.690Z,17.08
2018-07-02T01:50:59.679Z,17.12
2018-07-02T01:51:59.675Z,17.11
2018-07-02T01:52:59.697Z,17.06
2018-07-02T01:53:59.679Z,17.11
2018-07-02T01:54:59.695Z,17.12
2018-07-02T01:56:00.459Z,17.08
2018-07-02T01:56:59.683Z,17.08
2018-07-02T01:57:59.711Z,17.04
2018-07-02T01:58:59.698Z,17.01
2018-07-02T01:59:59.723Z,17.03
2018-07-02T02:00:59.720Z,16.98
2018-07-02T02:01:59.736Z,17.03
2018-07-02T02:02:59.730Z,17.08
2018-07-02T02:03:59.786Z,16.97
2018-07-02T02:04:59.717Z,16.98
2018-07-02T02:05:59.708Z,16.96
2018-07-02T02:06:59.713Z,16.98
2018-07-02T02:07:59.748Z,16.83
2018-07-02T02:08:59.725Z,16.93
2018-07-02T02:09:59.724Z,16.83
2018-07-02T02:10:59.725Z,16.88
2018-07-02T02:11:59.781Z,16.85
2018-07-02T02:12:59.784Z,16.81
2018-07-02T02:13:59.757Z,16.83
2018-07-02T02:14:59.744Z,16.89
2018-07-02T02:15:59.747Z,16.83
2018-07-02T02:16:59.738Z,16.78
2018-07-02T02:17:59.730Z,16.70
2018-07-02T02:18:59.739Z,16.78
2018-07-02T02:19:59.778Z,16.66
2018-07-02T02:20:59.815Z,16.64
2018-07-02T02:21:59.795Z,16.66
2018-07-02T02:22:59.802Z,16.63
2018-07-02T02:23:59.783Z,16.57
2018-07-02T02:24:59.800Z,16.53
2018-07-02T02:25:59.772Z,16.56
2018-07-02T02:26:59.787Z,16.53
2018-07-02T02:27:59.781Z,16.46
2018-07-02T02:28:59.756Z,16.39
2018-07-02T02:29:59.771Z,16.35
2018-07-02T02:30:59.769Z,16.41
2018-07-02T02:31:59.778Z,16.39
2018-07-02T02:32:59.784Z,16.38
2018-07-02T02:33:59.788Z,16.41
2018-07-02T02:34:59.796Z,16.34
2018-07-02T02:36:00.475Z,16.39
2018-07-02T02:36:59.805Z,16.43
2018-07-02T02:37:59.821Z,16.31
2018-07-02T02:38:59.805Z,16.33
2018-07-02T02:39:59.811Z,16.31
2018-07-02T02:40:59.828Z,16.31
2018-07-02T02:41:59.831Z,16.30
2018-07-02T02:42:59.851Z,16.34
2018-07-02T02:43:59.843Z,16.30
2018-07-02T02:44:59.835Z,16.28
2018-07-02T02:45:59.865Z,16.31
2018-07-02T02:46:59.834Z,16.34
2018-07-02T02:47:59.844Z,16.23
2018-07-02T02:48:59.847Z,16.20
2018-07-02T02:49:59.898Z,16.21
2018-07-02T02:50:59.847Z,16.20
2018-07-02T02:51:59.832Z,16.24
2018-07-02T02:52:59.833Z,16.11
2018-07-02T02:53:59.828Z,16.12
2018-07-02T02:54:59.833Z,16.14
2018-07-02T02:55:59.841Z,16.15
2018-07-02T02:56:59.837Z,16.05
2018-07-02T02:57:59.849Z,16.05
2018-07-02T02:58:59.842Z,16.04
2018-07-02T02:59:59.850Z,16.07
2018-07-02T03:00:59.853Z,16.04
2018-07-02T03:01:59.874Z,16.11
2018-07-02T03:02:59.898Z,16.09
2018-07-02T03:03:59.890Z,16.07
2018-07-02T03:04:59.889Z,16.04
2018-07-02T03:05:59.904Z,16.04
2018-07-02T03:06:59.898Z,16.12
2018-07-02T03:07:59.898Z,16.04
2018-07-02T03:08:59.904Z,16.07
2018-07-02T03:09:59.903Z,15.97
2018-07-02T03:10:59.880Z,15.96
2018-07-02T03:11:59.903Z,15.94
2018-07-02T03:12:59.914Z,16.00
2018-07-02T03:13:59.904Z,15.92
2018-07-02T03:14:59.910Z,15.92
2018-07-02T03:16:00.000Z,15.96
2018-07-02T03:16:59.892Z,15.92
2018-07-02T03:17:59.896Z,15.94
2018-07-02T03:18:59.887Z,15.96
2018-07-02T03:19:59.888Z,15.93
2018-07-02T03:20:59.903Z,15.89
2018-07-02T03:21:59.916Z,15.87
2018-07-02T03:22:59.911Z,15.84
2018-07-02T03:23:59.942Z,15.83
2018-07-02T03:24:59.927Z,15.84
2018-07-02T03:25:59.965Z,15.90
2018-07-02T03:26:59.922Z,15.89
2018-07-02T03:27:59.933Z,15.80
2018-07-02T03:28:59.937Z,15.86
2018-07-02T03:29:59.939Z,15.86
2018-07-02T03:30:59.921Z,15.86
2018-07-02T03:31:59.925Z,15.90
2018-07-02T03:32:59.935Z,15.97
2018-07-02T03:33:59.962Z,16.01
2018-07-02T03:34:59.967Z,16.00
2018-07-02T03:35:59.940Z,15.96
2018-07-02T03:36:59.940Z,15.86
2018-07-02T03:37:59.939Z,15.93
2018-07-02T03:38:59.954Z,15.86
2018-07-02T03:39:59.966Z,15.90
2018-07-02T03:40:59.945Z,15.97
2018-07-02T03:41:59.953Z,15.94
2018-07-02T03:42:59.954Z,15.92
2018-07-02T03:43:59.956Z,16.02
2018-07-02T03:44:59.962Z,15.96
2018-07-02T03:45:59.967Z,15.92
2018-07-02T03:46:59.988Z,15.94
2018-07-02T03:47:59.979Z,16.00
2018-07-02T03:49:00.024Z,15.93
2018-07-02T03:49:59.978Z,15.92
2018-07-02T03:50:59.997Z,16.00
2018-07-02T03:51:59.994Z,15.92
2018-07-02T03:53:00.016Z,15.93
2018-07-02T03:53:59.993Z,15.93
2018-07-02T03:54:59.995Z,15.92
2018-07-02T03:56:00.000Z,15.93
2018-07-02T03:57:00.142Z,15.92
2018-07-02T03:58:00.070Z,15.87
2018-07-02T03:59:00.039Z,15.97
2018-07-02T04:00:00.015Z,16.01
2018-07-02T04:01:00.031Z,16.01
2018-07-02T04:01:59.992Z,15.96
2018-07-02T04:03:00.011Z,15.93
2018-07-02T04:04:00.001Z,15.94
2018-07-02T04:05:00.049Z,16.07
2018-07-02T04:05:59.998Z,16.02
2018-07-02T04:07:00.037Z,15.94
2018-07-02T04:08:00.018Z,16.00
2018-07-02T04:09:00.012Z,16.02
2018-07-02T04:10:00.107Z,16.04
2018-07-02T04:11:00.035Z,16.14
2018-07-02T04:12:00.065Z,16.04
2018-07-02T04:13:00.074Z,16.20
2018-07-02T04:14:00.029Z,16.02
2018-07-02T04:15:00.045Z,16.05
2018-07-02T04:16:00.046Z,16.04
2018-07-02T04:17:00.030Z,16.04
2018-07-02T04:18:00.038Z,16.09
2018-07-02T04:19:00.064Z,16.05
2018-07-02T04:20:00.057Z,16.01
2018-07-02T04:21:00.049Z,16.04
2018-07-02T04:22:00.054Z,16.05
2018-07-02T04:23:00.065Z,16.01
2018-07-02T04:24:00.068Z,16.11
2018-07-02T04:25:00.059Z,16.08
2018-07-02T04:26:00.092Z,16.04
2018-07-02T04:27:00.100Z,16.08
2018-07-02T04:28:00.111Z,16.04
2018-07-02T04:29:00.091Z,16.11
2018-07-02T04:30:00.110Z,16.07
2018-07-02T04:31:00.081Z,16.09
2018-07-02T04:32:00.095Z,16.05
2018-07-02T04:33:00.121Z,16.01
2018-07-02T04:34:00.119Z,16.15
2018-07-02T04:35:00.087Z,16.20
2018-07-02T04:36:00.111Z,16.21
2018-07-02T04:37:00.101Z,16.20
2018-07-02T04:38:01.022Z,16.17
2018-07-02T04:39:00.123Z,16.25
2018-07-02T04:40:00.089Z,16.17
2018-07-02T04:41:00.122Z,16.24
2018-07-02T04:42:00.091Z,16.31
2018-07-02T04:43:00.438Z,16.31
2018-07-02T04:44:00.119Z,16.33
2018-07-02T04:45:00.133Z,16.31
2018-07-02T04:46:00.107Z,16.24
2018-07-02T04:47:00.127Z,16.38
2018-07-02T04:48:00.108Z,16.42
2018-07-02T04:49:00.106Z,16.42
2018-07-02T04:50:00.109Z,16.42
2018-07-02T04:51:00.246Z,16.45
2018-07-02T04:52:00.116Z,16.52
2018-07-02T04:53:00.137Z,16.53
2018-07-02T04:54:00.133Z,16.67
2018-07-02T04:55:00.127Z,16.70
2018-07-02T04:56:00.139Z,16.78
2018-07-02T04:57:00.136Z,16.79
2018-07-02T04:58:00.148Z,16.68
2018-07-02T04:59:00.160Z,16.78
2018-07-02T05:00:00.151Z,16.76
2018-07-02T05:01:00.181Z,16.79
2018-07-02T05:02:00.153Z,16.71
2018-07-02T05:03:00.155Z,16.78
2018-07-02T05:04:00.152Z,16.82
2018-07-02T05:05:00.165Z,16.76
2018-07-02T05:06:00.149Z,16.79
2018-07-02T05:07:00.171Z,16.89
2018-07-02T05:08:00.171Z,16.91
2018-07-02T05:09:00.295Z,16.88
2018-07-02T05:10:00.166Z,16.97
2018-07-02T05:11:00.204Z,17.58
2018-07-02T05:12:00.184Z,18.45
2018-07-02T05:13:00.212Z,19.78
2018-07-02T05:14:00.185Z,20.74
2018-07-02T05:15:00.186Z,21.90
2018-07-02T05:16:00.235Z,22.39
2018-07-02T05:17:00.266Z,22.07
2018-07-02T05:18:00.206Z,22.05
2018-07-02T05:19:00.200Z,22.47
2018-07-02T05:20:00.201Z,22.65
2018-07-02T05:21:00.200Z,22.79
2018-07-02T05:22:00.281Z,23.10
2018-07-02T05:23:00.206Z,22.86
2018-07-02T05:24:00.241Z,22.83
2018-07-02T05:25:00.222Z,23.01
2018-07-02T05:26:00.242Z,23.10
2018-07-02T05:27:00.229Z,23.36
2018-07-02T05:28:00.213Z,23.80
2018-07-02T05:29:00.492Z,23.07
2018-07-02T05:30:00.250Z,23.53
2018-07-02T05:31:00.233Z,23.95
2018-07-02T05:32:00.223Z,24.42
2018-07-02T05:33:00.219Z,25.09
2018-07-02T05:34:00.234Z,24.30
2018-07-02T05:35:00.266Z,23.78
2018-07-02T05:36:00.259Z,23.32
2018-07-02T05:37:00.276Z,23.42
2018-07-02T05:38:00.303Z,23.01
2018-07-02T05:39:00.289Z,21.92
2018-07-02T05:40:00.277Z,21.83
2018-07-02T05:41:00.298Z,21.96
2018-07-02T05:42:00.261Z,22.60
2018-07-02T05:43:00.311Z,23.22
2018-07-02T05:44:00.294Z,24.46
2018-07-02T05:45:01.041Z,23.93
2018-07-02T05:46:00.284Z,23.61
2018-07-02T05:47:00.322Z,24.81
2018-07-02T05:48:00.314Z,24.88
2018-07-02T05:49:00.344Z,24.64
2018-07-02T05:50:00.318Z,25.80
2018-07-02T05:51:00.334Z,25.54
2018-07-02T05:52:00.368Z,26.21
2018-07-02T05:53:00.335Z,26.01
2018-07-02T05:54:00.360Z,26.25
2018-07-02T05:55:00.377Z,25.25
2018-07-02T05:56:00.365Z,26.05
2018-07-02T05:57:00.355Z,26.12
2018-07-02T05:58:00.356Z,25.92
2018-07-02T05:59:00.362Z,25.72
2018-07-02T06:00:00.366Z,24.84
2018-07-02T06:01:00.379Z,25.25
2018-07-02T06:02:00.422Z,25.85
2018-07-02T06:03:00.426Z,25.58
2018-07-02T06:04:00.392Z,26.15
2018-07-02T06:05:00.423Z,26.44
2018-07-02T06:06:00.417Z,25.58
2018-07-02T06:07:00.415Z,24.98
2018-07-02T06:08:00.521Z,24.84
2018-07-02T06:09:00.458Z,25.05
2018-07-02T06:10:00.444Z,25.58
2018-07-02T06:11:00.448Z,25.87
2018-07-02T06:12:00.477Z,25.24
2018-07-02T06:13:00.479Z,25.77
2018-07-02T06:14:00.571Z,25.95
2018-07-02T06:15:00.487Z,25.60
2018-07-02T06:16:00.493Z,25.46
2018-07-02T06:17:00.494Z,25.02
2018-07-02T06:18:00.556Z,25.24
2018-07-02T06:19:00.568Z,25.52
2018-07-02T06:20:00.526Z,26.12
2018-07-02T06:21:00.522Z,25.77
2018-07-02T06:22:00.533Z,26.44
2018-07-02T06:23:01.080Z,27.13
2018-07-02T06:24:00.550Z,27.29
2018-07-02T06:25:00.566Z,27.25
2018-07-02T06:26:00.598Z,28.36
2018-07-02T06:27:00.571Z,27.88
2018-07-02T06:28:00.610Z,27.65
2018-07-02T06:29:00.604Z,27.47
2018-07-02T06:30:00.605Z,27.22
2018-07-02T06:31:00.619Z,26.73
2018-07-02T06:32:00.631Z,26.32
2018-07-02T06:33:00.625Z,26.28
2018-07-02T06:34:00.665Z,26.26
2018-07-02T06:35:00.651Z,27.13
2018-07-02T06:36:00.694Z,26.58
2018-07-02T06:37:00.678Z,27.60
2018-07-02T06:38:00.683Z,27.74
2018-07-02T06:39:00.730Z,27.07
2018-07-02T06:40:00.703Z,27.37
2018-07-02T06:41:00.708Z,27.55
2018-07-02T06:42:00.758Z,25.97
2018-07-02T06:43:00.723Z,26.62
2018-07-02T06:44:00.751Z,27.36
2018-07-02T06:45:00.769Z,27.25
2018-07-02T06:46:00.815Z,27.60
2018-07-02T06:47:00.796Z,27.54
2018-07-02T06:48:00.779Z,27.21
2018-07-02T06:49:00.799Z,27.18
2018-07-02T06:50:00.903Z,26.89
2018-07-02T06:51:00.849Z,27.46
2018-07-02T06:52:00.830Z,27.12
2018-07-02T06:53:00.831Z,26.54
2018-07-02T06:54:00.888Z,26.62
2018-07-02T06:55:00.886Z,27.41
2018-07-02T06:56:00.869Z,27.50
2018-07-02T06:57:00.912Z,27.81
2018-07-02T06:58:00.907Z,27.36
2018-07-02T06:59:00.911Z,27.90
2018-07-02T07:00:00.936Z,28.34
2018-07-02T07:01:01.130Z,27.69
2018-07-02T07:02:00.973Z,27.75
2018-07-02T07:03:00.969Z,28.04
2018-07-02T07:04:00.989Z,28.55
2018-07-02T07:05:01.015Z,28.25
2018-07-02T07:06:01.027Z,27.84
2018-07-02T07:07:01.001Z,27.87
2018-07-02T07:08:01.038Z,27.54
2018-07-02T07:09:01.071Z,26.92
2018-07-02T07:10:01.077Z,28.07
2018-07-02T07:11:01.107Z,28.93
2018-07-02T07:12:01.071Z,28.88
2018-07-02T07:13:01.131Z,28.30
2018-07-02T07:14:01.101Z,28.86
2018-07-02T07:15:01.142Z,28.76
2018-07-02T07:16:01.127Z,27.99
2018-07-02T07:17:01.145Z,28.31
2018-07-02T07:18:01.153Z,28.86
2018-07-02T07:19:01.209Z,28.95
2018-07-02T07:20:01.301Z,27.96
2018-07-02T07:21:01.263Z,27.88
2018-07-02T07:22:01.298Z,28.46
2018-07-02T07:23:01.246Z,29.53
2018-07-02T07:24:01.341Z,28.48
2018-07-02T07:25:01.274Z,28.95
2018-07-02T07:26:01.325Z,29.00
2018-07-02T07:27:01.360Z,29.34
2018-07-02T07:28:01.312Z,30.53
2018-07-02T07:29:01.324Z,30.91
2018-07-02T07:30:01.376Z,30.22
2018-07-02T07:31:01.496Z,30.53
2018-07-02T07:32:01.385Z,29.48
2018-07-02T07:33:01.450Z,28.33
2018-07-02T07:34:01.392Z,28.70
2018-07-02T07:35:01.502Z,28.73
2018-07-02T07:36:02.108Z,28.64
2018-07-02T07:37:01.435Z,27.75
2018-07-02T07:38:01.449Z,28.83
2018-07-02T07:39:01.444Z,27.88
2018-07-02T07:40:01.486Z,28.67
2018-07-02T07:41:01.470Z,30.05
2018-07-02T07:42:01.639Z,30.57
2018-07-02T07:43:01.498Z,30.82
2018-07-02T07:44:01.584Z,29.57
2018-07-02T07:45:01.558Z,29.80
2018-07-02T07:46:01.521Z,30.08
2018-07-02T07:47:01.576Z,29.92
2018-07-02T07:48:01.805Z,29.97
2018-07-02T07:49:01.661Z,30.46
2018-07-02T07:50:01.609Z,30.80
2018-07-02T07:51:01.620Z,30.00
2018-07-02T07:52:01.625Z,29.34
2018-07-02T07:53:02.411Z,29.26
2018-07-02T07:54:01.720Z,29.37
2018-07-02T07:55:01.755Z,29.16
2018-07-02T07:56:01.826Z,30.04
2018-07-02T07:57:01.798Z,30.42
2018-07-02T07:58:01.763Z,30.79
2018-07-02T07:59:02.803Z,30.20
2018-07-02T08:00:02.778Z,30.34
2018-07-02T08:01:02.192Z,30.64
2018-07-02T08:02:01.910Z,30.72
2018-07-02T08:03:01.849Z,30.29
2018-07-02T08:04:02.227Z,30.77
2018-07-02T08:05:01.922Z,30.24
2018-07-02T08:06:01.974Z,30.43
2018-07-02T08:07:02.178Z,30.55
2018-07-02T08:08:01.903Z,30.91
2018-07-02T08:09:01.886Z,29.58
2018-07-02T08:10:01.912Z,29.89
2018-07-02T08:11:02.715Z,30.19
2018-07-02T08:12:02.032Z,29.95
2018-07-02T08:13:02.011Z,30.32
2018-07-02T08:14:02.012Z,29.92
2018-07-02T08:15:02.092Z,30.58
2018-07-02T08:17:09.044Z,30.08
2018-07-02T08:18:02.128Z,30.57
2018-07-02T08:19:02.188Z,29.73
2018-07-02T08:20:02.262Z,29.73
2018-07-02T08:21:02.183Z,28.81
2018-07-02T08:22:02.109Z,29.26
2018-07-02T08:23:02.152Z,29.23
2018-07-02T08:24:02.187Z,28.43
2018-07-02T08:25:02.195Z,29.19
2018-07-02T08:26:02.206Z,30.46
2018-07-02T08:27:02.210Z,30.88
2018-07-02T08:28:02.224Z,31.81
2018-07-02T08:29:02.290Z,32.07
2018-07-02T08:30:02.351Z,30.76
2018-07-02T08:31:02.323Z,30.35
2018-07-02T08:32:02.397Z,29.94
2018-07-02T08:33:02.399Z,30.69
2018-07-02T08:34:02.349Z,30.79
2018-07-02T08:35:03.640Z,31.47
2018-07-02T08:36:02.421Z,30.83
2018-07-02T08:37:04.975Z,30.32
2018-07-02T08:38:02.544Z,30.32
2018-07-02T08:39:02.418Z,30.91
2018-07-02T08:40:02.528Z,30.54
2018-07-02T08:41:02.514Z,30.01
2018-07-02T08:42:02.510Z,29.55
2018-07-02T08:43:02.495Z,30.29
2018-07-02T08:44:02.591Z,29.39
2018-07-02T08:45:02.644Z,29.48
2018-07-02T08:46:02.699Z,30.67
2018-07-02T08:47:02.687Z,30.38
2018-07-02T22:00:58.201Z,19.84
2018-07-02T22:01:58.004Z,19.80
2018-07-02T22:02:57.958Z,19.77
2018-07-02T22:03:57.994Z,19.83
2018-07-02T22:04:58.194Z,19.81
2018-07-02T22:05:57.969Z,19.69
2018-07-02T22:06:57.938Z,19.80
2018-07-02T22:07:57.980Z,19.66
2018-07-02T22:08:58.000Z,19.73
2018-07-02T22:09:58.003Z,19.71
2018-07-02T22:10:58.011Z,19.68
2018-07-02T22:11:58.803Z,19.51
2018-07-02T22:12:57.991Z,19.55
2018-07-02T22:13:57.977Z,19.63
2018-07-02T22:14:57.969Z,19.59
2018-07-02T22:15:58.023Z,19.56
2018-07-02T22:16:57.967Z,19.48
2018-07-02T22:17:58.020Z,19.56
2018-07-02T22:18:58.023Z,19.44
2018-07-02T22:19:58.052Z,19.51
2018-07-02T22:20:57.996Z,19.51
2018-07-02T22:21:58.051Z,19.54
2018-07-02T22:22:58.045Z,19.41
2018-07-02T22:23:58.036Z,19.39
2018-07-02T22:24:58.026Z,19.51
2018-07-02T22:25:58.146Z,19.50
2018-07-02T22:26:58.020Z,19.51
2018-07-02T22:27:58.045Z,19.44
2018-07-02T22:28:58.027Z,19.36
2018-07-02T22:29:58.066Z,19.44
2018-07-02T22:30:58.077Z,19.41
2018-07-02T22:31:58.063Z,19.36
2018-07-02T22:32:58.027Z,19.26
2018-07-02T22:33:58.009Z,19.18
2018-07-02T22:34:58.008Z,19.25
2018-07-02T22:35:58.036Z,19.26
2018-07-02T22:36:58.038Z,19.25
2018-07-02T22:37:58.104Z,19.23
2018-07-02T22:38:58.071Z,19.16
2018-07-02T22:53:15.539Z,19.07
2018-07-02T22:53:44.842Z,19.00
2018-07-02T22:54:44.835Z,18.90
2018-07-02T22:55:44.885Z,18.94
2018-07-02T22:56:44.926Z,18.95
2018-07-02T22:57:44.862Z,18.91
2018-07-02T22:58:44.884Z,18.94
2018-07-02T22:59:44.961Z,18.91
2018-07-02T23:00:44.880Z,18.99
2018-07-02T23:01:44.885Z,18.95
2018-07-02T23:02:44.883Z,18.94
2018-07-02T23:03:44.905Z,18.88
2018-07-02T23:04:44.906Z,18.85
2018-07-02T23:05:44.898Z,18.87
2018-07-02T23:06:44.897Z,18.81
2018-07-02T23:07:44.922Z,18.87
2018-07-02T23:08:44.913Z,18.82
2018-07-02T23:09:44.917Z,18.87
2018-07-02T23:10:44.919Z,18.81
2018-07-02T23:11:44.935Z,18.82
2018-07-02T23:12:44.999Z,18.66
2018-07-02T23:13:44.912Z,18.69
2018-07-02T23:14:44.944Z,18.72
2018-07-02T23:15:44.929Z,18.57
2018-07-02T23:16:44.894Z,18.57
2018-07-02T23:17:44.918Z,18.60
2018-07-02T23:18:44.937Z,18.47
2018-07-02T23:19:44.948Z,18.54
2018-07-02T23:20:44.929Z,18.42
2018-07-02T23:21:44.968Z,18.50
2018-07-02T23:22:44.936Z,18.45
2018-07-02T23:23:44.927Z,18.52
2018-07-02T23:24:44.972Z,18.42
2018-07-02T23:25:44.959Z,18.39
2018-07-02T23:26:45.016Z,18.39
2018-07-02T23:27:45.554Z,18.35
2018-07-02T23:28:44.982Z,18.27
2018-07-02T23:29:44.983Z,18.36
2018-07-02T23:30:44.987Z,18.30
2018-07-02T23:31:44.999Z,18.32
2018-07-02T23:32:44.983Z,18.30
2018-07-02T23:33:45.000Z,18.29
2018-07-02T23:34:44.982Z,18.32
2018-07-02T23:35:44.967Z,18.33
2018-07-02T23:36:45.039Z,18.20
2018-07-02T23:37:44.967Z,18.26
2018-07-02T23:38:45.011Z,18.20
2018-07-02T23:39:45.010Z,18.20
2018-07-02T23:40:45.557Z,18.21
2018-07-02T23:41:45.072Z,18.25
2018-07-02T23:42:45.000Z,18.14
2018-07-02T23:43:45.559Z,18.14
2018-07-02T23:44:44.995Z,18.20
2018-07-02T23:45:45.026Z,18.18
2018-07-02T23:46:45.045Z,18.18
2018-07-02T23:47:45.055Z,18.11
2018-07-02T23:48:45.025Z,18.12
2018-07-02T23:49:45.072Z,18.00
2018-07-02T23:50:45.024Z,18.05
2018-07-02T23:51:45.040Z,18.00
2018-07-02T23:52:45.042Z,18.02
2018-07-02T23:53:45.052Z,18.00
2018-07-02T23:54:45.059Z,17.96
2018-07-02T23:55:45.084Z,17.99
2018-07-02T23:56:44.999Z,17.93
2018-07-02T23:57:45.071Z,17.89
2018-07-02T23:58:45.063Z,17.99
2018-07-02T23:59:45.073Z,17.92
